Time;durP1;ratioP1;P1;durP2;ratioP2;P2;SDS_P1;SDS_P2;PMS_P1;PMS_P2;Temp;Humidity;BMP_temperature;BMP_pressure;BME280_temperature;BME280_humidity;BME280_pressure;Samples;Min_cycle;Max_cycle;Signal;HPM_P1;HPM_P2
2023/03/28 00:00:10;;;;;;;3.90;2.38;;;;;;;3.97;82.59;98873.63;4122011;28;20209;-85
2023/03/28 00:02:14;;;;;;;6.28;2.60;;;;;;;3.96;82.75;98882.25;4123014;28;20203;-85
2023/03/28 00:04:21;;;;;;;5.22;2.80;;;;;;;3.91;82.74;98881.56;4125777;28;20705;-85
2023/03/28 00:06:25;;;;;;;3.63;2.45;;;;;;;3.87;83.48;98876.53;4137493;28;20632;-86
2023/03/28 00:08:28;;;;;;;5.85;2.92;;;;;;;3.81;83.61;98879.28;4123269;28;20200;-86
2023/03/28 00:10:31;;;;;;;7.90;3.70;;;;;;;3.85;83.46;98889.47;4123470;28;20212;-86
2023/03/28 00:12:35;;;;;;;4.80;3.08;;;;;;;3.79;83.50;98883.66;4110541;28;20236;-85
2023/03/28 00:14:38;;;;;;;6.25;3.10;;;;;;;3.70;83.46;98889.06;4142538;28;20223;-86
2023/03/28 00:16:45;;;;;;;4.30;2.92;;;;;;;3.59;83.12;98885.94;4139240;28;20213;-86
2023/03/28 00:18:49;;;;;;;8.32;4.72;;;;;;;3.58;83.23;98892.00;4119494;28;20215;-86
2023/03/28 00:20:53;;;;;;;6.80;4.03;;;;;;;3.52;83.42;98897.31;4133802;28;20214;-85
2023/03/28 00:22:56;;;;;;;4.15;3.20;;;;;;;3.47;83.15;98894.03;4108607;28;20612;-85
2023/03/28 00:25:01;;;;;;;4.57;2.70;;;;;;;3.40;83.95;98900.22;4118553;28;20246;-85
2023/03/28 00:27:05;;;;;;;4.47;3.25;;;;;;;3.38;83.41;98896.00;4124439;28;20196;-86
2023/03/28 00:29:10;;;;;;;3.75;2.92;;;;;;;3.39;84.30;98903.69;4116534;28;20240;-85
2023/03/28 00:31:13;;;;;;;4.85;2.75;;;;;;;3.39;84.05;98908.84;4125899;28;20204;-86
2023/03/28 00:33:18;;;;;;;3.67;2.80;;;;;;;3.43;83.56;98909.63;4136866;28;20228;-85
2023/03/28 00:35:21;;;;;;;2.40;2.20;;;;;;;3.46;84.10;98915.53;4130087;28;20220;-85
2023/03/28 00:37:24;;;;;;;2.90;2.60;;;;;;;3.48;83.89;98924.06;4125156;28;20212;-85
2023/03/28 00:39:30;;;;;;;3.55;2.47;;;;;;;3.51;83.60;98921.41;4119525;28;20254;-85
2023/03/28 00:41:34;;;;;;;2.75;2.35;;;;;;;3.54;84.19;98926.47;4138639;28;20211;-85
2023/03/28 00:43:40;;;;;;;3.45;2.60;;;;;;;3.52;84.05;98920.53;4124624;28;20212;-86
2023/03/28 00:45:44;;;;;;;4.45;2.97;;;;;;;3.56;84.46;98927.25;4108428;28;20295;-85
2023/03/28 00:47:56;;;;;;;4.00;2.90;;;;;;;3.55;84.02;98930.75;4121379;28;20289;-85
2023/03/28 00:50:09;;;;;;;4.05;2.30;;;;;;;3.56;84.03;98936.75;4123765;28;20207;-85
2023/03/28 00:52:14;;;;;;;5.18;3.03;;;;;;;3.54;83.56;98929.06;4129928;28;20283;-85
2023/03/28 00:54:19;;;;;;;5.15;3.60;;;;;;;3.53;84.25;98924.78;4138632;28;20219;-85
2023/03/28 00:56:23;;;;;;;4.43;2.78;;;;;;;3.53;84.32;98932.50;4121049;28;20216;-85
2023/03/28 00:58:29;;;;;;;6.30;3.33;;;;;;;3.52;84.21;98927.38;4106764;28;20216;-85
2023/03/28 01:00:33;;;;;;;3.10;2.42;;;;;;;3.53;84.23;98926.50;4110983;28;20221;-85
2023/03/28 01:02:38;;;;;;;5.65;2.70;;;;;;;3.50;84.10;98929.19;4142581;28;20200;-85
2023/03/28 01:04:48;;;;;;;6.03;2.72;;;;;;;3.49;84.92;98930.91;4128219;28;20250;-85
2023/03/28 01:06:58;;;;;;;4.78;2.50;;;;;;;3.51;85.03;98931.72;4110390;28;20209;-85
2023/03/28 01:09:05;;;;;;;4.53;2.65;;;;;;;3.47;84.75;98930.13;4113864;28;20208;-85
2023/03/28 01:11:09;;;;;;;7.03;2.80;;;;;;;3.46;84.37;98931.00;4123118;28;20192;-85
2023/03/28 01:13:13;;;;;;;5.00;2.75;;;;;;;3.44;84.75;98930.22;4109600;28;20311;-85
2023/03/28 01:15:17;;;;;;;3.38;2.80;;;;;;;3.39;84.39;98937.19;4124474;28;20622;-85
2023/03/28 01:17:26;;;;;;;8.00;3.13;;;;;;;3.37;84.03;98935.56;4125775;28;20220;-85
2023/03/28 01:19:44;;;;;;;3.65;2.83;;;;;;;3.33;84.59;98939.09;4108117;28;20201;-85
2023/03/28 01:22:09;;;;;;;3.67;2.90;;;;;;;3.34;84.12;98938.22;4124381;28;20208;-85
2023/03/28 01:24:42;;;;;;;3.42;2.65;;;;;;;3.30;84.39;98937.44;4137128;28;20208;-85
2023/03/28 01:26:49;;;;;;;5.50;2.95;;;;;;;3.29;84.56;98948.66;4120244;28;20660;-85
2023/03/28 01:29:14;;;;;;;4.53;2.42;;;;;;;3.23;84.16;98945.34;4121938;28;20200;-85
2023/03/28 01:31:47;;;;;;;5.43;3.00;;;;;;;3.15;83.82;98944.72;4107701;28;20626;-85
2023/03/28 01:34:33;;;;;;;4.35;2.92;;;;;;;3.16;83.46;98945.56;4112983;28;20338;-85
2023/03/28 01:37:02;;;;;;;3.80;3.03;;;;;;;3.07;83.56;98941.50;4122741;28;20217;-85
2023/03/28 01:39:18;;;;;;;4.25;2.70;;;;;;;3.06;83.79;98947.53;4104362;28;20593;-85
2023/03/28 01:41:26;;;;;;;6.90;3.33;;;;;;;3.08;83.96;98957.78;4105565;28;20209;-84
2023/03/28 01:43:34;;;;;;;3.70;2.70;;;;;;;3.06;84.61;98955.25;4104659;28;20212;-84
2023/03/28 01:45:45;;;;;;;5.15;3.00;;;;;;;3.04;84.74;98946.72;4109073;28;20740;-84
2023/03/28 01:47:52;;;;;;;3.42;3.10;;;;;;;3.01;84.75;98957.13;4122129;28;20212;-84
2023/03/28 01:50:01;;;;;;;4.78;3.05;;;;;;;2.98;84.87;98952.03;4101759;28;20212;-84
2023/03/28 01:52:10;;;;;;;4.78;2.75;;;;;;;2.96;84.82;98947.78;4133608;28;20607;-85
2023/03/28 01:54:20;;;;;;;5.15;3.10;;;;;;;2.96;85.15;98950.38;4103508;28;20698;-84
2023/03/28 01:56:29;;;;;;;4.80;2.70;;;;;;;2.99;85.05;98958.88;4120058;28;21002;-84
2023/03/28 01:58:42;;;;;;;3.95;3.30;;;;;;;3.02;85.01;98958.81;4122896;28;20299;-85
2023/03/28 02:00:55;;;;;;;5.05;3.20;;;;;;;3.02;84.57;98948.50;4108125;28;20208;-84
2023/03/28 02:03:02;;;;;;;5.50;3.20;;;;;;;3.01;84.72;98956.28;4115130;28;20234;-84
2023/03/28 02:05:13;;;;;;;4.30;3.00;;;;;;;3.03;84.98;98959.66;4116667;28;20236;-84
2023/03/28 02:07:20;;;;;;;4.90;2.85;;;;;;;2.97;84.78;98955.47;4124826;28;20209;-84
2023/03/28 02:09:57;;;;;;;6.60;3.30;;;;;;;2.93;84.98;98950.44;4109956;28;20595;-84
2023/03/28 02:12:29;;;;;;;3.70;2.70;;;;;;;2.85;84.28;98958.34;4132339;28;20674;-84
2023/03/28 02:14:41;;;;;;;4.80;3.22;;;;;;;2.79;84.61;98952.53;4117157;28;20231;-84
2023/03/28 02:17:14;;;;;;;4.30;3.53;;;;;;;2.82;84.75;98955.03;4123837;28;20283;-84
2023/03/28 02:19:37;;;;;;;5.03;3.75;;;;;;;2.83;85.60;98951.56;4115622;28;20197;-84
2023/03/28 02:21:50;;;;;;;9.15;4.80;;;;;;;2.82;85.25;98950.72;4117680;28;20736;-84
2023/03/28 02:24:24;;;;;;;5.20;4.00;;;;;;;2.81;85.33;98955.88;4090830;28;20668;-84
2023/03/28 02:26:40;;;;;;;5.40;3.63;;;;;;;2.79;85.44;98955.09;4101430;28;20217;-84
2023/03/28 02:29:02;;;;;;;4.88;3.42;;;;;;;2.79;86.03;98955.09;4125801;28;20291;-85
2023/03/28 02:31:13;;;;;;;5.43;3.70;;;;;;;2.80;85.54;98954.22;4137913;28;20327;-84
2023/03/28 02:33:37;;;;;;;4.55;3.50;;;;;;;2.83;85.80;98961.88;4130436;28;20699;-84
2023/03/28 02:35:54;;;;;;;6.93;3.80;;;;;;;2.85;85.83;98955.78;4135177;28;20246;-84
2023/03/28 02:38:03;;;;;;;4.80;3.13;;;;;;;2.87;85.87;98958.31;4128162;28;20200;-84
2023/03/28 02:40:25;;;;;;;4.88;3.33;;;;;;;2.86;85.70;98965.22;4139658;28;20212;-84
2023/03/28 02:42:40;;;;;;;4.32;2.92;;;;;;;2.83;85.16;98961.88;4123751;28;20703;-84
2023/03/28 02:45:04;;;;;;;5.57;3.45;;;;;;;2.78;84.79;98958.53;4118643;28;20215;-84
2023/03/28 02:47:15;;;;;;;5.85;3.40;;;;;;;2.73;84.65;98955.25;4139883;28;20204;-84
2023/03/28 02:49:27;;;;;;;4.10;3.30;;;;;;;2.67;84.52;98955.38;4107915;28;20212;-84
2023/03/28 02:51:45;;;;;;;4.53;3.22;;;;;;;2.64;84.09;98958.03;4124453;28;20271;-84
2023/03/28 02:53:53;;;;;;;6.32;3.13;;;;;;;2.57;84.08;98958.22;4123732;28;20651;-84
2023/03/28 02:56:03;;;;;;;3.75;3.35;;;;;;;2.53;84.88;98956.59;4121549;28;20204;-84
2023/03/28 02:58:36;;;;;;;5.03;3.35;;;;;;;2.48;85.50;98961.84;4122522;28;20212;-84
2023/03/28 03:00:39;;;;;;;5.43;3.63;;;;;;;2.48;85.88;98964.44;4122372;28;20212;-84
2023/03/28 03:02:43;;;;;;;4.10;3.42;;;;;;;2.51;86.28;98964.34;4126692;28;20259;-84
2023/03/28 03:04:49;;;;;;;5.90;3.25;;;;;;;2.56;86.23;98967.66;4125541;28;20239;-84
2023/03/28 03:06:52;;;;;;;5.40;3.30;;;;;;;2.55;86.07;98970.28;4104944;28;20248;-84
2023/03/28 03:08:55;;;;;;;5.00;3.38;;;;;;;2.59;86.27;98961.63;4139933;28;20310;-84
2023/03/28 03:11:00;;;;;;;3.72;2.80;;;;;;;2.60;86.63;98968.44;4109006;28;20205;-84
2023/03/28 03:13:03;;;;;;;4.93;3.03;;;;;;;2.61;85.88;98972.72;4124069;28;20695;-85
2023/03/28 03:15:07;;;;;;;4.30;2.85;;;;;;;2.56;85.46;98965.09;4135860;28;20224;-84
2023/03/28 03:17:19;;;;;;;5.28;2.65;;;;;;;2.54;85.53;98960.84;4118844;28;20300;-85
2023/03/28 03:19:23;;;;;;;9.32;3.33;;;;;;;2.53;85.47;98972.03;4128347;28;20230;-84
2023/03/28 03:21:26;;;;;;;5.80;2.90;;;;;;;2.55;85.40;98968.53;4122310;28;20229;-85
2023/03/28 03:23:30;;;;;;;5.43;3.05;;;;;;;2.56;86.09;98967.66;4114646;28;20302;-85
2023/03/28 03:25:34;;;;;;;4.20;3.05;;;;;;;2.61;85.85;98967.56;4119908;28;20731;-85
2023/03/28 03:27:49;;;;;;;5.05;3.65;;;;;;;2.62;84.93;98967.53;4118733;28;20763;-85
2023/03/28 03:29:54;;;;;;;9.00;3.65;;;;;;;2.71;85.54;98969.88;4102857;28;20201;-84
2023/03/28 03:32:01;;;;;;;5.82;3.05;;;;;;;2.74;85.93;98968.94;4113413;28;20295;-84
2023/03/28 03:34:15;;;;;;;5.90;3.30;;;;;;;2.78;85.99;98974.00;4104638;28;20217;-84
2023/03/28 03:36:25;;;;;;;5.55;3.58;;;;;;;2.82;85.59;98968.72;4111316;28;20227;-84
2023/03/28 03:38:29;;;;;;;4.97;3.30;;;;;;;2.80;85.35;98980.81;4104218;28;20244;-84
2023/03/28 03:40:32;;;;;;;5.70;3.42;;;;;;;2.79;85.80;98980.84;4123098;28;20211;-84
2023/03/28 03:42:36;;;;;;;4.28;3.00;;;;;;;2.77;85.30;98980.03;4119067;28;20296;-84
2023/03/28 03:44:41;;;;;;;7.40;2.95;;;;;;;2.72;84.76;98978.44;4108955;28;20209;-84
2023/03/28 03:46:45;;;;;;;4.00;3.10;;;;;;;2.71;84.22;98977.59;4127402;28;20699;-84
2023/03/28 03:48:48;;;;;;;6.25;3.60;;;;;;;2.66;83.80;98974.31;4124812;28;20207;-84
2023/03/28 03:50:53;;;;;;;6.55;3.97;;;;;;;2.68;83.79;98980.25;4106398;28;20200;-84
2023/03/28 03:52:57;;;;;;;5.90;3.97;;;;;;;2.60;83.76;98974.44;4122936;28;20725;-84
2023/03/28 03:55:09;;;;;;;7.40;4.05;;;;;;;2.54;84.06;98979.72;4118560;28;20239;-84
2023/03/28 03:57:14;;;;;;;6.20;3.40;;;;;;;2.54;83.90;98979.72;4138883;28;20207;-84
2023/03/28 03:59:18;;;;;;;6.68;4.60;;;;;;;2.55;83.85;98976.25;4136148;28;20687;-84
2023/03/28 04:01:24;;;;;;;4.35;2.88;;;;;;;2.49;83.64;98970.41;4120763;28;20258;-84
2023/03/28 04:03:29;;;;;;;4.25;2.92;;;;;;;2.39;83.36;98974.94;4123526;28;20211;-84
2023/03/28 04:05:32;;;;;;;5.95;4.03;;;;;;;2.29;83.30;98976.91;4107128;28;20255;-85
2023/03/28 04:07:38;;;;;;;7.85;3.63;;;;;;;2.32;83.53;98969.09;4116858;28;20215;-85
2023/03/28 04:09:47;;;;;;;7.28;3.58;;;;;;;2.34;82.91;98981.03;4130437;28;20219;-85
2023/03/28 04:11:50;;;;;;;5.80;3.70;;;;;;;2.27;82.77;98979.50;4122451;28;20250;-84
2023/03/28 04:13:53;;;;;;;5.90;3.40;;;;;;;2.18;82.45;98981.41;4134875;28;20225;-84
2023/03/28 04:15:56;;;;;;;6.50;3.33;;;;;;;2.09;82.06;98974.75;4122091;28;20239;-84
2023/03/28 04:18:09;;;;;;;5.22;3.40;;;;;;;2.02;82.33;98972.34;4133259;28;20759;-84
2023/03/28 04:20:18;;;;;;;5.10;3.28;;;;;;;1.98;82.85;98970.69;4122347;28;20223;-84
2023/03/28 04:22:35;;;;;;;5.50;3.40;;;;;;;1.98;83.79;98979.25;4103606;28;20204;-84
2023/03/28 04:24:48;;;;;;;4.20;3.13;;;;;;;1.98;83.99;98973.25;4119651;28;20291;-84
2023/03/28 04:26:58;;;;;;;4.50;3.38;;;;;;;1.98;84.81;98971.53;4115819;28;20201;-84
2023/03/28 04:29:02;;;;;;;5.60;3.22;;;;;;;2.02;85.17;98978.31;4119137;28;20211;-84
2023/03/28 04:31:10;;;;;;;5.82;3.88;;;;;;;2.06;84.52;98977.38;4131760;28;20265;-84
2023/03/28 04:33:34;;;;;;;5.15;3.40;;;;;;;2.05;85.86;98982.56;4116396;28;20215;-85
2023/03/28 04:35:39;;;;;;;5.28;3.90;;;;;;;1.98;85.00;98981.81;4107749;28;20692;-84
2023/03/28 04:37:43;;;;;;;5.65;3.63;;;;;;;1.91;84.48;98985.41;4130112;28;20228;-84
2023/03/28 04:39:46;;;;;;;6.85;5.18;;;;;;;1.93;85.03;98986.22;4138427;28;20299;-84
2023/03/28 04:42:03;;;;;;;4.80;3.80;;;;;;;1.90;84.30;98995.72;4142290;28;20295;-84
2023/03/28 04:44:25;;;;;;;6.70;4.78;;;;;;;1.96;83.64;99000.75;4124645;28;20204;-84
2023/03/28 04:46:33;;;;;;;6.07;4.57;;;;;;;1.88;84.20;98994.91;4129934;28;21100;-84
2023/03/28 04:48:46;;;;;;;7.25;4.95;;;;;;;1.87;84.45;99011.19;4125330;28;20743;-84
2023/03/28 04:51:00;;;;;;;8.55;4.35;;;;;;;1.87;83.67;99001.75;4136548;28;20207;-84
2023/03/28 04:53:03;;;;;;;6.65;5.20;;;;;;;1.88;83.28;99010.34;4127989;28;20232;-84
2023/03/28 04:55:09;;;;;;;7.53;4.93;;;;;;;1.82;83.78;99015.59;4111056;28;20213;-84
2023/03/28 04:57:13;;;;;;;7.93;5.93;;;;;;;1.83;84.29;99017.28;4125755;28;20292;-84
2023/03/28 04:59:22;;;;;;;9.15;4.90;;;;;;;1.84;84.42;99020.72;4120663;28;20204;-84
2023/03/28 05:01:26;;;;;;;8.63;4.93;;;;;;;1.80;84.27;99012.19;4139890;28;20203;-84
2023/03/28 05:04:03;;;;;;;7.65;4.50;;;;;;;1.79;84.46;99017.34;4112564;28;20230;-85
2023/03/28 05:06:07;;;;;;;6.05;5.00;;;;;;;1.80;84.64;99019.06;4110481;28;20230;-84
2023/03/28 05:08:11;;;;;;;5.72;4.18;;;;;;;1.78;84.82;99024.22;4141603;28;20209;-84
2023/03/28 05:10:15;;;;;;;7.60;4.57;;;;;;;1.78;85.11;99029.38;4125656;28;20211;-84
2023/03/28 05:12:18;;;;;;;5.72;4.10;;;;;;;1.76;84.54;99028.56;4127479;28;20208;-84
2023/03/28 05:14:39;;;;;;;6.93;4.25;;;;;;;1.73;84.45;99026.06;4138640;28;20203;-84
2023/03/28 05:16:48;;;;;;;4.78;3.60;;;;;;;1.70;84.18;99026.09;4113898;28;20754;-84
2023/03/28 05:19:11;;;;;;;7.10;4.25;;;;;;;1.68;84.29;99027.00;4119508;28;20223;-84
2023/03/28 05:21:33;;;;;;;8.10;4.05;;;;;;;1.66;84.62;99033.91;4121673;28;20538;-84
2023/03/28 05:23:36;;;;;;;4.95;3.53;;;;;;;1.65;85.18;99025.31;4136942;28;20282;-85
2023/03/28 05:25:50;;;;;;;4.88;3.80;;;;;;;1.67;85.06;99036.44;4124981;28;20208;-85
2023/03/28 05:27:54;;;;;;;6.15;3.95;;;;;;;1.69;85.50;99034.69;4125007;28;20207;-85
2023/03/28 05:29:57;;;;;;;6.68;3.78;;;;;;;1.79;86.14;99043.06;4122486;28;20236;-84
2023/03/28 05:32:00;;;;;;;7.78;4.38;;;;;;;1.89;85.20;99048.00;4122889;28;20220;-84
2023/03/28 05:34:05;;;;;;;6.93;3.85;;;;;;;2.00;85.14;99053.78;4108594;28;20201;-85
2023/03/28 05:36:17;;;;;;;9.80;4.07;;;;;;;2.14;84.32;99051.81;4127307;28;20255;-85
2023/03/28 05:38:21;;;;;;;5.22;3.45;;;;;;;2.27;84.30;99066.09;4108040;28;20268;-84
2023/03/28 05:40:29;;;;;;;6.00;3.92;;;;;;;2.39;83.84;99070.13;4120796;28;20719;-85
2023/03/28 05:42:33;;;;;;;8.27;3.90;;;;;;;2.53;83.61;99075.84;4111830;28;20614;-85
2023/03/28 05:44:43;;;;;;;4.00;3.30;;;;;;;2.68;83.58;99078.09;4135132;28;20218;-85
2023/03/28 05:47:05;;;;;;;8.70;4.68;;;;;;;2.82;82.64;99086.34;4117500;28;20232;-85
2023/03/28 05:49:10;;;;;;;7.38;3.80;;;;;;;2.93;82.30;99085.25;4127959;28;20219;-85
2023/03/28 05:51:15;;;;;;;7.00;3.47;;;;;;;3.10;82.37;99084.88;4141809;28;20283;-86
2023/03/28 05:53:20;;;;;;;5.80;3.53;;;;;;;3.20;81.33;99087.16;4134856;28;20302;-85
2023/03/28 05:55:24;;;;;;;4.75;3.40;;;;;;;3.34;81.25;99087.69;4116412;28;20298;-84
2023/03/28 05:57:27;;;;;;;8.05;4.85;;;;;;;3.49;80.92;99101.06;4115957;28;20233;-85
2023/03/28 05:59:31;;;;;;;6.10;3.95;;;;;;;3.63;79.92;99104.13;4125138;28;20208;-85
2023/03/28 06:01:35;;;;;;;6.50;3.97;;;;;;;3.77;79.88;99107.22;4115009;28;20299;-84
2023/03/28 06:03:44;;;;;;;5.40;3.80;;;;;;;3.92;79.55;99106.81;4111058;28;20217;-85
2023/03/28 06:05:48;;;;;;;8.63;4.18;;;;;;;4.07;79.63;99102.09;4114476;28;20221;-85
2023/03/28 06:07:55;;;;;;;8.75;4.38;;;;;;;4.22;78.77;99109.44;4118959;28;20242;-86
2023/03/28 06:10:00;;;;;;;8.23;3.90;;;;;;;4.35;77.85;99109.06;4112642;28;20209;-85
2023/03/28 06:12:06;;;;;;;4.32;3.53;;;;;;;4.50;78.16;99118.97;4105330;28;20592;-86
2023/03/28 06:14:12;;;;;;;4.65;3.63;;;;;;;4.60;78.49;99120.41;4111714;28;20206;-85
2023/03/28 06:16:15;;;;;;;7.15;4.20;;;;;;;4.70;78.15;99117.47;4113415;28;20235;-85
2023/03/28 06:18:19;;;;;;;9.30;4.38;;;;;;;4.82;78.43;99126.63;4127624;28;20236;-85
2023/03/28 06:20:24;;;;;;;8.75;5.93;;;;;;;4.97;76.59;99132.19;4106716;28;20225;-86
2023/03/28 06:22:30;;;;;;;8.60;5.53;;;;;;;5.03;77.23;99131.16;4124259;28;20823;-86
2023/03/28 06:24:40;;;;;;;8.77;5.18;;;;;;;5.20;77.26;99135.78;4126516;28;20212;-86
2023/03/28 06:26:45;;;;;;;8.02;5.55;;;;;;;5.34;75.75;99140.53;4128742;28;20754;-85
2023/03/28 06:28:52;;;;;;;6.68;5.22;;;;;;;5.43;76.11;99133.34;4120182;28;20209;-85
2023/03/28 06:30:58;;;;;;;7.35;6.28;;;;;;;5.56;74.90;99144.97;4124861;28;20215;-85
2023/03/28 06:33:03;;;;;;;8.43;5.30;;;;;;;5.68;74.40;99142.00;4125776;28;20197;-86
2023/03/28 06:35:07;;;;;;;5.95;4.32;;;;;;;5.88;74.51;99152.56;4120350;28;20213;-86
2023/03/28 06:37:10;;;;;;;5.72;5.13;;;;;;;6.03;74.10;99158.09;4124291;28;20674;-86
2023/03/28 06:39:26;;;;;;;9.85;5.78;;;;;;;6.27;74.63;99165.03;4109050;28;20207;-85
2023/03/28 06:41:32;;;;;;;5.50;4.50;;;;;;;6.45;74.93;99164.38;4123164;28;20200;-86
2023/03/28 06:43:37;;;;;;;8.25;4.95;;;;;;;6.59;75.91;99163.03;4101815;28;20260;-87
2023/03/28 06:45:44;;;;;;;5.70;4.75;;;;;;;6.73;74.82;99173.72;4111853;28;21744;-86
2023/03/28 06:47:50;;;;;;;6.50;4.90;;;;;;;6.89;75.05;99170.53;4119181;28;20204;-87
2023/03/28 06:49:59;;;;;;;7.20;5.35;;;;;;;7.04;74.35;99173.41;4120772;28;20207;-86
2023/03/28 06:52:22;;;;;;;6.35;4.78;;;;;;;7.20;71.96;99187.50;4114113;28;20565;-87
2023/03/28 06:54:28;;;;;;;6.75;4.65;;;;;;;7.32;73.32;99184.44;4132841;28;20212;-85
2023/03/28 06:56:33;;;;;;;6.63;5.35;;;;;;;7.47;71.62;99177.81;4108329;28;20793;-87
2023/03/28 06:58:39;;;;;;;8.07;5.90;;;;;;;7.60;71.88;99182.47;4120631;28;20219;-87
2023/03/28 07:00:45;;;;;;;6.00;4.95;;;;;;;7.75;70.93;99179.28;4103657;28;20208;-87
2023/03/28 07:03:06;;;;;;;11.18;4.85;;;;;;;7.93;72.51;99175.94;4124641;28;20216;-88
2023/03/28 07:05:12;;;;;;;6.68;5.97;;;;;;;8.07;73.92;99179.66;4116344;28;20241;-88
2023/03/28 07:07:15;;;;;;;8.13;5.80;;;;;;;8.23;72.38;99183.34;4136921;28;20281;-88
2023/03/28 07:09:19;;;;;;;8.38;6.25;;;;;;;8.44;72.58;99194.53;4112205;28;20207;-87
2023/03/28 07:11:28;;;;;;;7.47;6.32;;;;;;;8.65;73.45;99190.19;4116684;28;20215;-88
2023/03/28 07:13:31;;;;;;;7.90;6.28;;;;;;;8.81;72.92;99191.19;4119792;28;20220;-88
2023/03/28 07:15:40;;;;;;;8.40;5.55;;;;;;;8.98;71.86;99200.78;4115091;28;20239;-88
2023/03/28 07:17:43;;;;;;;6.57;5.60;;;;;;;9.08;71.40;99202.06;4122857;28;20224;-87
2023/03/28 07:19:49;;;;;;;6.75;6.05;;;;;;;9.18;72.11;99205.94;4113156;28;20663;-88
2023/03/28 07:21:53;;;;;;;6.88;6.13;;;;;;;9.25;70.65;99204.75;4110827;28;20303;-87
2023/03/28 07:23:58;;;;;;;9.00;6.75;;;;;;;9.28;70.58;99209.81;4123773;28;20205;-87
2023/03/28 07:26:08;;;;;;;7.22;6.47;;;;;;;9.44;71.80;99216.00;4136993;28;20223;-87
2023/03/28 07:28:11;;;;;;;7.13;5.90;;;;;;;9.61;70.18;99223.91;4136889;28;20329;-88
2023/03/28 07:30:15;;;;;;;7.28;5.75;;;;;;;9.68;69.27;99214.88;4122685;28;20220;-87
2023/03/28 07:32:19;;;;;;;7.68;6.00;;;;;;;9.63;67.18;99216.84;4131890;28;20298;-89
2023/03/28 07:34:22;;;;;;;7.57;5.70;;;;;;;9.60;70.94;99215.22;4133482;28;20594;-89
2023/03/28 07:36:27;;;;;;;6.78;6.07;;;;;;;9.66;69.59;99219.31;4103136;28;20212;-88
2023/03/28 07:38:37;;;;;;;8.82;6.53;;;;;;;9.74;67.53;99211.97;4125131;28;20204;-89
2023/03/28 07:40:40;;;;;;;7.47;5.50;;;;;;;9.81;68.99;99218.59;4124401;28;20202;-88
2023/03/28 07:42:43;;;;;;;15.35;11.68;;;;;;;10.01;70.22;99222.84;4106751;28;20215;-87
2023/03/28 07:44:46;;;;;;;8.55;5.75;;;;;;;10.11;67.96;99215.41;4113997;28;20248;-87
2023/03/28 07:46:51;;;;;;;11.75;6.30;;;;;;;10.15;68.47;99212.56;4126473;28;20601;-87
2023/03/28 07:48:56;;;;;;;11.15;5.90;;;;;;;10.22;66.28;99228.75;4125957;28;20242;-87
2023/03/28 07:51:00;;;;;;;7.80;5.72;;;;;;;10.22;66.86;99229.59;4108541;28;20696;-87
2023/03/28 07:53:03;;;;;;;8.07;5.80;;;;;;;10.16;65.62;99219.47;4123321;28;20318;-93
2023/03/28 07:55:10;;;;;;;8.45;5.20;;;;;;;9.97;65.44;99218.69;4130023;28;20675;-92
2023/03/28 07:57:16;;;;;;;6.88;5.10;;;;;;;10.07;65.75;99219.06;4106016;28;20245;-93
2023/03/28 07:59:38;;;;;;;7.40;5.70;;;;;;;10.26;67.89;99215.50;4135239;28;20294;-92
2023/03/28 08:01:42;;;;;;;14.27;6.15;;;;;;;10.41;67.56;99219.97;4132951;28;20270;-92
2023/03/28 08:03:46;;;;;;;8.55;5.60;;;;;;;10.39;69.77;99221.81;4123410;28;20207;-92
2023/03/28 08:05:51;;;;;;;7.85;6.00;;;;;;;10.47;66.61;99220.50;4139849;28;20781;-93
2023/03/28 08:07:57;;;;;;;12.32;5.57;;;;;;;10.62;67.45;99232.75;4116723;28;20228;-93
2023/03/28 08:10:00;;;;;;;6.70;5.13;;;;;;;10.74;66.45;99226.94;4104595;28;20769;-93
2023/03/28 08:12:06;;;;;;;7.70;5.10;;;;;;;10.80;65.71;99233.63;4124745;28;20638;-93
2023/03/28 08:14:12;;;;;;;8.37;4.50;;;;;;;10.91;66.34;99235.56;4126247;28;21396;-93
2023/03/28 08:16:15;;;;;;;8.98;5.57;;;;;;;11.08;65.28;99234.69;4121571;28;20639;-92
2023/03/28 08:18:19;;;;;;;8.18;5.13;;;;;;;11.05;64.81;99230.50;4121840;28;20232;-93
2023/03/28 08:20:23;;;;;;;8.95;5.07;;;;;;;11.03;64.91;99232.31;4107601;28;20215;-92
2023/03/28 08:22:48;;;;;;;6.97;4.80;;;;;;;11.04;65.01;99234.03;4126392;28;20282;-93
2023/03/28 08:25:14;;;;;;;16.95;6.05;;;;;;;11.08;67.09;99243.41;4123549;28;20747;-92
2023/03/28 08:27:19;;;;;;;7.22;4.20;;;;;;;11.15;63.99;99231.69;4105542;28;20935;-92
2023/03/28 08:29:26;;;;;;;5.18;3.67;;;;;;;11.27;63.99;99242.38;4119863;28;20212;-93
2023/03/28 08:31:29;;;;;;;11.67;4.33;;;;;;;11.40;64.16;99239.94;4125789;28;20670;-93
2023/03/28 08:33:47;;;;;;;7.40;4.22;;;;;;;11.44;63.00;99247.53;4122731;28;20643;-92
2023/03/28 08:35:51;;;;;;;8.23;3.50;;;;;;;11.62;63.68;99243.09;4120240;28;20651;-93
2023/03/28 08:37:57;;;;;;;5.07;3.33;;;;;;;11.76;62.44;99241.44;4126817;28;21308;-92
2023/03/28 08:40:07;;;;;;;11.37;4.33;;;;;;;11.76;61.12;99244.88;4127976;28;20208;-92
2023/03/28 08:42:38;;;;;;;8.55;3.67;;;;;;;11.41;61.06;99244.22;4108499;28;20630;-92
2023/03/28 08:44:51;;;;;;;10.73;4.27;;;;;;;11.09;60.35;99239.84;4118949;28;20217;-92
2023/03/28 08:46:57;;;;;;;9.50;4.13;;;;;;;11.28;63.69;99237.97;4110509;28;20722;-92
2023/03/28 08:49:05;;;;;;;10.10;4.13;;;;;;;11.60;66.03;99237.97;4109244;28;20625;-93
2023/03/28 08:51:15;;;;;;;8.50;4.37;;;;;;;11.82;62.40;99235.88;4128650;28;20622;-93
2023/03/28 08:53:26;;;;;;;5.07;2.90;;;;;;;11.57;63.71;99245.13;4120131;28;20681;-92
2023/03/28 08:55:31;;;;;;;8.90;3.10;;;;;;;11.71;63.91;99234.75;4103456;28;21210;-94
2023/03/28 08:57:36;;;;;;;5.60;3.20;;;;;;;11.75;61.35;99239.75;4102643;28;21314;-93
2023/03/28 08:59:43;;;;;;;8.37;3.30;;;;;;;11.80;60.59;99248.16;4105343;28;20632;-93
2023/03/28 09:01:46;;;;;;;5.27;2.93;;;;;;;11.76;63.45;99249.28;4125115;28;21018;-92
2023/03/28 09:03:50;;;;;;;6.70;3.00;;;;;;;11.83;63.51;99248.88;4122766;28;20689;-93
2023/03/28 09:06:03;;;;;;;6.70;3.60;;;;;;;11.19;59.60;99240.22;4114580;28;20631;-92
2023/03/28 09:08:20;;;;;;;4.03;1.87;;;;;;;11.14;60.91;99242.22;4122299;28;20631;-92
2023/03/28 09:10:31;;;;;;;7.50;2.03;;;;;;;10.96;60.06;99235.34;4121978;28;20975;-93
2023/03/28 09:12:52;;;;;;;4.63;2.10;;;;;;;10.36;59.19;99227.19;4102018;28;20648;-93
2023/03/28 09:15:06;;;;;;;5.17;2.03;;;;;;;10.39;61.10;99222.63;4118669;28;20711;-93
2023/03/28 09:17:13;;;;;;;4.87;2.20;;;;;;;10.41;60.82;99225.16;4120358;28;21029;-92
2023/03/28 09:19:29;;;;;;;4.63;2.03;;;;;;;10.45;60.83;99224.13;4120297;28;20651;-92
2023/03/28 09:22:25;;;;;;;5.60;2.00;;;;;;;10.47;60.61;99222.25;4120721;28;20208;-92
2023/03/28 09:24:40;;;;;;;4.10;1.67;;;;;;;10.37;59.50;99215.81;4110502;28;20686;-93
2023/03/28 09:26:54;;;;;;;4.00;1.77;;;;;;;10.08;60.61;99218.16;4120810;28;20720;-92
2023/03/28 09:29:01;;;;;;;7.33;2.33;;;;;;;10.30;60.27;99224.00;4130992;28;20634;-92
2023/03/28 09:31:07;;;;;;;8.18;2.58;;;;;;;10.54;60.63;99223.63;4120225;28;20634;-92
2023/03/28 09:33:14;;;;;;;4.17;2.00;;;;;;;10.35;59.61;99220.25;4120057;28;20196;-92
2023/03/28 09:35:20;;;;;;;3.58;1.73;;;;;;;10.23;59.24;99220.84;4121248;28;21267;-91
2023/03/28 09:37:38;;;;;;;3.33;1.60;;;;;;;10.01;58.03;99220.22;4122977;28;20319;-91
2023/03/28 09:39:47;;;;;;;4.63;1.75;;;;;;;9.84;58.87;99213.25;4105488;28;20308;-91
2023/03/28 09:41:58;;;;;;;4.03;2.28;;;;;;;9.65;59.92;99204.59;4108987;28;20228;-92
2023/03/28 09:44:24;;;;;;;4.90;2.07;;;;;;;9.46;59.93;99219.41;4120096;28;20291;-93
2023/03/28 09:46:56;;;;;;;6.63;2.30;;;;;;;9.35;62.64;99205.19;4124033;28;20630;-92
2023/03/28 09:49:20;;;;;;;5.88;2.25;;;;;;;9.31;62.01;99203.66;4126357;28;21234;-92
2023/03/28 09:51:28;;;;;;;6.63;2.90;;;;;;;9.56;62.32;99208.50;4120141;28;20208;-93
2023/03/28 09:53:33;;;;;;;3.83;2.10;;;;;;;9.65;60.67;99209.81;4122573;28;20650;-93
2023/03/28 09:55:36;;;;;;;3.83;2.25;;;;;;;9.54;58.61;99206.88;4108432;28;21043;-92
2023/03/28 09:58:01;;;;;;;2.70;2.00;;;;;;;9.45;60.27;99199.47;4116823;28;20221;-93
2023/03/28 10:00:07;;;;;;;8.30;2.72;;;;;;;9.55;63.00;99206.78;4135546;28;20211;-92
2023/03/28 10:02:26;;;;;;;7.63;2.60;;;;;;;10.02;61.66;99208.88;4104666;28;20215;-92
2023/03/28 10:04:35;;;;;;;7.72;2.20;;;;;;;10.42;62.41;99206.84;4124485;28;20710;-92
2023/03/28 10:06:51;;;;;;;7.60;2.50;;;;;;;10.72;60.66;99204.44;4121205;28;20208;-92
2023/03/28 10:09:15;;;;;;;10.20;2.20;;;;;;;10.95;61.62;99213.63;4133185;28;20650;-92
2023/03/28 10:11:28;;;;;;;11.10;7.00;;;;;;;11.14;60.65;99218.72;4116111;28;20655;-90
2023/03/28 10:13:41;;;;;;;4.70;3.40;;;;;;;11.10;61.04;99214.59;4123694;28;21012;-92